createdAt,value
2018-08-11T00:00:01.703Z,55.22
2018-08-11T00:01:01.720Z,55.22
2018-08-11T00:02:01.723Z,55.02
2018-08-11T00:03:01.710Z,55.12
2018-08-11T00:04:01.698Z,55.32
2018-08-11T00:05:01.719Z,55.02
2018-08-11T00:06:01.694Z,54.74
2018-08-11T00:07:01.683Z,54.83
2018-08-11T00:08:01.679Z,55.51
2018-08-11T00:09:01.681Z,55.32
2018-08-11T00:10:01.678Z,55.69
2018-08-11T00:11:01.670Z,55.02
2018-08-11T00:12:01.667Z,55.41
2018-08-11T00:13:01.663Z,55.51
2018-08-11T00:14:01.654Z,55.99
2018-08-11T00:15:01.655Z,56.01
2018-08-11T00:16:01.663Z,55.79
2018-08-11T00:17:01.637Z,55.79
2018-08-11T00:18:01.645Z,55.60
2018-08-11T00:19:01.678Z,55.51
2018-08-11T00:20:01.658Z,55.99
2018-08-11T00:21:01.626Z,55.99
2018-08-11T00:22:01.623Z,56.18
2018-08-11T00:23:01.627Z,56.08
2018-08-11T00:24:01.629Z,56.46
2018-08-11T00:25:01.613Z,56.27
2018-08-11T00:26:01.613Z,56.95
2018-08-11T00:27:01.603Z,56.49
2018-08-11T00:28:01.613Z,56.59
2018-08-11T00:29:01.611Z,56.76
2018-08-11T00:30:01.607Z,56.88
2018-08-11T00:31:01.632Z,56.66
2018-08-11T00:32:01.594Z,56.59
2018-08-11T00:33:01.585Z,56.85
2018-08-11T00:34:01.607Z,56.85
2018-08-11T00:35:01.582Z,56.66
2018-08-11T00:36:01.575Z,56.98
2018-08-11T00:37:01.601Z,56.85
2018-08-11T00:38:01.591Z,56.66
2018-08-11T00:39:01.600Z,57.04
2018-08-11T00:40:01.568Z,56.85
2018-08-11T00:41:01.561Z,57.04
2018-08-11T00:42:01.554Z,57.23
2018-08-11T00:43:01.588Z,57.23
2018-08-11T00:44:01.546Z,57.62
2018-08-11T00:45:01.547Z,57.81
2018-08-11T00:46:01.546Z,57.65
2018-08-11T00:47:01.569Z,57.71
2018-08-11T00:48:01.602Z,57.23
2018-08-11T00:49:01.550Z,57.71
2018-08-11T00:50:01.549Z,57.71
2018-08-11T00:51:01.561Z,57.52
2018-08-11T00:52:01.520Z,59.66
2018-08-11T00:53:01.525Z,61.87
2018-08-11T00:54:01.574Z,64.15
2018-08-11T00:55:01.513Z,65.20
2018-08-11T00:56:01.506Z,65.05
2018-08-11T00:57:01.514Z,65.43
2018-08-11T00:58:01.500Z,66.74
2018-08-11T00:59:01.497Z,67.61
2018-08-11T01:00:01.521Z,67.70
2018-08-11T01:01:01.515Z,68.08
2018-08-11T01:02:01.486Z,68.28
2018-08-11T01:03:01.483Z,69.24
2018-08-11T01:04:01.478Z,69.34
2018-08-11T01:05:01.474Z,70.20
2018-08-11T01:06:01.467Z,70.39
2018-08-11T01:07:01.472Z,70.39
2018-08-11T01:08:01.463Z,70.87
2018-08-11T01:09:01.464Z,71.35
2018-08-11T01:10:01.477Z,72.02
2018-08-11T01:11:01.545Z,71.73
2018-08-11T01:12:01.463Z,72.47
2018-08-11T01:13:01.453Z,72.60
2018-08-11T01:14:01.445Z,72.47
2018-08-11T01:15:01.440Z,72.85
2018-08-11T01:16:01.438Z,72.95
2018-08-11T01:17:01.468Z,72.85
2018-08-11T01:18:01.448Z,73.14
2018-08-11T01:19:01.450Z,72.95
2018-08-11T01:20:01.439Z,73.14
2018-08-11T01:21:01.415Z,73.04
2018-08-11T01:22:01.413Z,73.52
2018-08-11T01:23:01.453Z,74.10
2018-08-11T01:24:01.410Z,74.01
2018-08-11T01:25:01.417Z,74.54
2018-08-11T01:26:01.408Z,74.83
2018-08-11T01:27:01.396Z,75.70
2018-08-11T01:28:01.448Z,76.27
2018-08-11T01:29:01.390Z,77.42
2018-08-11T01:30:01.418Z,77.42
2018-08-11T01:31:01.381Z,77.80
2018-08-11T01:32:01.380Z,78.57
2018-08-11T01:33:01.379Z,78.44
2018-08-11T01:34:01.372Z,79.01
2018-08-11T01:35:01.377Z,79.30
2018-08-11T01:36:01.367Z,80.26
2018-08-11T01:37:01.409Z,80.74
2018-08-11T01:38:01.382Z,81.12
2018-08-11T01:39:01.389Z,81.22
2018-08-11T01:40:01.381Z,81.70
2018-08-11T01:41:01.342Z,82.56
2018-08-11T01:42:01.338Z,83.42
2018-08-11T01:43:01.341Z,84.09
2018-08-11T01:44:01.394Z,85.68
2018-08-11T01:45:01.340Z,85.49
2018-08-11T01:46:01.335Z,86.93
2018-08-11T01:47:01.331Z,87.02
2018-08-11T01:48:01.351Z,87.41
2018-08-11T01:49:01.337Z,87.79
2018-08-11T01:50:01.335Z,88.37
2018-08-11T01:51:01.348Z,88.37
2018-08-11T01:52:01.304Z,88.03
2018-08-11T01:53:01.304Z,87.55
2018-08-11T01:54:01.310Z,87.94
2018-08-11T01:55:01.295Z,87.74
2018-08-11T01:56:01.287Z,88.80
2018-08-11T01:57:01.290Z,87.41
2018-08-11T01:58:01.301Z,86.46
2018-08-11T01:59:01.301Z,86.74
2018-08-11T02:00:01.267Z,86.27
2018-08-11T02:01:01.265Z,86.74
2018-08-11T02:02:01.282Z,88.18
2018-08-11T02:03:01.257Z,83.49
2018-08-11T02:04:01.250Z,82.06
2018-08-11T02:05:01.974Z,77.84
2018-08-11T02:06:01.255Z,78.38
2018-08-11T02:07:01.248Z,72.06
2018-08-11T02:08:01.260Z,67.66
2018-08-11T02:09:01.239Z,66.89
2018-08-11T02:10:01.224Z,65.65
2018-08-11T02:11:01.228Z,66.03
2018-08-11T02:12:01.215Z,67.08
2018-08-11T02:13:01.207Z,66.80
2018-08-11T02:14:01.204Z,60.86
2018-08-11T02:15:01.220Z,60.86
2018-08-11T02:16:01.201Z,61.05
2018-08-11T02:17:01.192Z,57.51
2018-08-11T02:18:01.184Z,53.97
2018-08-11T02:19:01.180Z,53.97
2018-08-11T02:20:01.187Z,62.08
2018-08-11T02:21:01.174Z,65.81
2018-08-11T02:22:01.166Z,59.01
2018-08-11T02:23:01.155Z,59.59
2018-08-11T02:24:01.159Z,59.78
2018-08-11T02:25:01.156Z,51.07
2018-08-11T02:26:01.143Z,52.42
2018-08-11T02:27:01.143Z,51.36
2018-08-11T02:28:01.141Z,56.15
2018-08-11T02:29:01.127Z,45.62
2018-08-11T02:30:01.121Z,44.09
2018-08-11T02:31:01.118Z,47.92
2018-08-11T02:32:01.121Z,46.87
2018-08-11T02:33:01.108Z,55.96
2018-08-11T02:34:01.111Z,56.15
2018-08-11T02:35:01.096Z,55.86
2018-08-11T02:36:01.094Z,49.55
2018-08-11T02:37:01.091Z,50.41
2018-08-11T02:38:01.084Z,46.75
2018-08-11T02:39:01.077Z,44.67
2018-08-11T02:40:01.069Z,46.20
2018-08-11T02:41:01.066Z,45.53
2018-08-11T02:42:01.089Z,46.87
2018-08-11T02:43:01.062Z,46.96
2018-08-11T02:44:01.080Z,49.84
2018-08-11T02:45:01.049Z,49.71
2018-08-11T02:46:01.040Z,49.23
2018-08-11T02:47:01.033Z,50.48
2018-08-11T02:48:01.030Z,56.12
2018-08-11T02:49:01.019Z,52.77
2018-08-11T02:50:01.014Z,53.82
2018-08-11T02:51:01.013Z,57.26
2018-08-11T02:52:01.017Z,56.79
2018-08-11T02:53:01.050Z,56.79
2018-08-11T02:54:01.003Z,56.79
2018-08-11T02:55:00.991Z,56.09
2018-08-11T02:56:00.986Z,51.43
2018-08-11T02:57:00.978Z,46.37
2018-08-11T02:58:00.985Z,47.11
2018-08-11T02:59:00.971Z,47.68
2018-08-11T03:00:00.972Z,47.20
2018-08-11T03:01:00.964Z,47.11
2018-08-11T03:02:00.956Z,46.15
2018-08-11T03:03:01.520Z,46.25
2018-08-11T03:04:00.942Z,44.72
2018-08-11T03:05:00.952Z,48.73
2018-08-11T03:06:00.951Z,47.58
2018-08-11T03:07:00.945Z,46.63
2018-08-11T03:08:00.926Z,46.82
2018-08-11T03:09:00.916Z,45.20
2018-08-11T03:10:00.913Z,47.68
2018-08-11T03:11:00.905Z,46.44
2018-08-11T03:12:00.903Z,47.78
2018-08-11T03:13:00.892Z,46.63
2018-08-11T03:14:00.935Z,46.92
2018-08-11T03:15:00.882Z,44.34
2018-08-11T03:16:00.882Z,42.61
2018-08-11T03:17:00.889Z,41.58
2018-08-11T03:18:00.907Z,41.49
2018-08-11T03:19:00.861Z,41.97
2018-08-11T03:20:00.860Z,43.21
2018-08-11T03:21:00.856Z,42.07
2018-08-11T03:22:00.841Z,42.16
2018-08-11T03:23:00.836Z,42.73
2018-08-11T03:24:00.832Z,43.40
2018-08-11T03:25:00.836Z,43.98
2018-08-11T03:26:00.820Z,41.49
2018-08-11T03:27:00.817Z,42.07
2018-08-11T03:28:00.814Z,41.97
2018-08-11T03:29:00.804Z,41.68
2018-08-11T03:30:00.813Z,44.07
2018-08-11T03:31:00.806Z,44.36
2018-08-11T03:32:00.785Z,41.78
2018-08-11T03:33:00.789Z,43.59
2018-08-11T03:34:00.777Z,41.58
2018-08-11T03:35:00.778Z,43.59
2018-08-11T03:36:00.767Z,43.40
2018-08-11T03:37:00.760Z,43.48
2018-08-11T03:38:00.756Z,43.19
2018-08-11T03:39:00.746Z,42.61
2018-08-11T03:40:00.778Z,42.81
2018-08-11T03:41:00.760Z,43.09
2018-08-11T03:42:00.748Z,43.76
2018-08-11T03:43:00.723Z,41.85
2018-08-11T03:44:00.727Z,41.75
2018-08-11T03:45:00.713Z,43.19
2018-08-11T03:46:00.835Z,43.38
2018-08-11T03:47:00.701Z,43.38
2018-08-11T03:48:00.721Z,42.71
2018-08-11T03:49:00.698Z,42.04
2018-08-11T03:50:00.691Z,41.47
2018-08-11T03:51:00.677Z,41.66
2018-08-11T03:52:00.682Z,42.14
2018-08-11T03:53:00.665Z,41.56
2018-08-11T03:54:00.668Z,41.18
2018-08-11T03:55:00.656Z,40.70
2018-08-11T03:56:00.652Z,39.75
2018-08-11T03:57:00.647Z,40.13
2018-08-11T03:58:00.648Z,39.18
2018-08-11T03:59:00.632Z,40.13
2018-08-11T04:00:00.631Z,40.42
2018-08-11T04:01:00.628Z,40.13
2018-08-11T04:02:00.624Z,40.52
2018-08-11T04:03:00.614Z,39.08
2018-08-11T04:04:00.604Z,38.89
2018-08-11T04:05:00.603Z,38.51
2018-08-11T04:06:00.599Z,38.79
2018-08-11T04:07:00.588Z,38.41
2018-08-11T04:08:00.589Z,39.84
2018-08-11T04:09:00.580Z,38.89
2018-08-11T04:10:00.572Z,39.75
2018-08-11T04:11:00.566Z,38.41
2018-08-11T04:12:00.555Z,38.41
2018-08-11T04:13:00.552Z,38.22
2018-08-11T04:14:00.550Z,38.60
2018-08-11T04:15:00.541Z,37.36
2018-08-11T04:16:00.539Z,37.93
2018-08-11T04:17:00.536Z,37.26
2018-08-11T04:18:00.522Z,36.12
2018-08-11T04:19:00.524Z,35.55
2018-08-11T04:20:00.509Z,34.69
2018-08-11T04:21:00.508Z,33.92
2018-08-11T04:22:00.518Z,35.35
2018-08-11T04:23:00.516Z,34.20
2018-08-11T04:24:00.493Z,33.83
2018-08-11T04:25:00.489Z,33.54
2018-08-11T04:26:00.480Z,32.97
2018-08-11T04:27:00.481Z,31.53
2018-08-11T04:28:00.463Z,31.63
2018-08-11T04:29:00.456Z,32.20
2018-08-11T04:30:00.452Z,32.39
2018-08-11T04:31:00.465Z,33.25
2018-08-11T04:32:00.446Z,32.29
2018-08-11T04:33:00.435Z,32.97
2018-08-11T04:34:00.435Z,32.87
2018-08-11T04:35:00.427Z,32.87
2018-08-11T04:36:00.437Z,31.04
2018-08-11T04:37:00.416Z,30.27
2018-08-11T04:38:00.419Z,30.18
2018-08-11T04:39:00.416Z,30.18
2018-08-11T04:40:00.399Z,30.18
2018-08-11T04:41:00.400Z,29.41
2018-08-11T04:42:00.394Z,29.70
2018-08-11T04:43:00.382Z,28.36
2018-08-11T04:44:00.376Z,29.70
2018-08-11T04:45:00.374Z,29.41
2018-08-11T04:46:00.365Z,29.41
2018-08-11T04:47:00.360Z,29.61
2018-08-11T04:48:00.354Z,30.56
2018-08-11T04:49:00.360Z,29.99
2018-08-11T04:50:00.342Z,30.85
2018-08-11T04:51:00.335Z,31.42
2018-08-11T04:52:00.332Z,30.18
2018-08-11T04:53:00.328Z,29.80
2018-08-11T04:54:00.339Z,29.89
2018-08-11T04:55:00.317Z,28.27
2018-08-11T04:56:00.318Z,29.13
2018-08-11T04:57:00.298Z,28.55
2018-08-11T04:58:00.296Z,29.41
2018-08-11T04:59:00.292Z,29.22
2018-08-11T05:00:00.297Z,28.27
2018-08-11T05:01:00.289Z,29.13
2018-08-11T05:02:00.271Z,29.05
2018-08-11T05:03:00.267Z,30.08
2018-08-11T05:04:00.266Z,29.41
2018-08-11T05:05:00.253Z,28.84
2018-08-11T05:06:00.260Z,28.76
2018-08-11T05:07:00.277Z,28.28
2018-08-11T05:08:00.247Z,28.86
2018-08-11T05:09:00.255Z,28.57
2018-08-11T05:10:00.227Z,28.19
2018-08-11T05:11:00.224Z,28.28
2018-08-11T05:12:00.236Z,27.61
2018-08-11T05:13:00.234Z,28.19
2018-08-11T05:14:00.208Z,27.71
2018-08-11T05:15:00.199Z,27.80
2018-08-11T05:16:00.191Z,28.19
2018-08-11T05:17:00.187Z,28.86
2018-08-11T05:18:00.179Z,28.47
2018-08-11T05:19:00.194Z,27.61
2018-08-11T05:20:00.213Z,28.00
2018-08-11T05:21:00.170Z,27.90
2018-08-11T05:22:00.163Z,28.47
2018-08-11T05:23:00.152Z,28.38
2018-08-11T05:24:00.149Z,28.28
2018-08-11T05:25:00.159Z,28.28
2018-08-11T05:26:00.140Z,27.33
2018-08-11T05:27:00.135Z,27.61
2018-08-11T05:28:00.129Z,27.33
2018-08-11T05:29:00.121Z,26.66
2018-08-11T05:30:00.117Z,27.04
2018-08-11T05:31:00.123Z,25.80
2018-08-11T05:32:00.109Z,26.46
2018-08-11T05:33:00.105Z,28.19
2018-08-11T05:34:00.098Z,27.61
2018-08-11T05:35:00.088Z,28.09
2018-08-11T05:36:00.084Z,28.38
2018-08-11T05:37:00.087Z,28.38
2018-08-11T05:38:00.080Z,29.14
2018-08-11T05:39:00.078Z,28.57
2018-08-11T05:40:00.066Z,29.14
2018-08-11T05:41:00.060Z,29.52
2018-08-11T05:42:00.051Z,29.62
2018-08-11T05:43:00.048Z,29.25
2018-08-11T05:44:00.042Z,28.19
2018-08-11T05:45:00.057Z,29.81
2018-08-11T05:46:00.033Z,30.11
2018-08-11T05:47:00.030Z,30.11
2018-08-11T05:48:00.028Z,31.45
2018-08-11T05:49:00.016Z,30.69
2018-08-11T05:50:00.017Z,33.46
2018-08-11T05:51:00.012Z,32.79
2018-08-11T05:52:00.010Z,34.42
2018-08-11T05:53:00.024Z,34.03
2018-08-11T05:53:59.997Z,34.80
2018-08-11T05:54:59.985Z,32.41
2018-08-11T05:55:59.987Z,37.57
2018-08-11T05:56:59.972Z,38.34
2018-08-11T05:57:59.970Z,37.38
2018-08-11T05:58:59.971Z,38.71
2018-08-11T05:59:59.957Z,39.20
2018-08-11T06:00:59.960Z,40.34
2018-08-11T06:02:00.025Z,38.53
2018-08-11T06:02:59.987Z,42.25
2018-08-11T06:04:00.012Z,42.54
2018-08-11T06:04:59.968Z,42.16
2018-08-11T06:05:59.926Z,44.95
2018-08-11T06:06:59.926Z,43.62
2018-08-11T06:07:59.936Z,44.00
2018-08-11T06:08:59.920Z,42.64
2018-08-11T06:09:59.932Z,44.09
2018-08-11T06:10:59.983Z,43.14
2018-08-11T06:11:59.928Z,47.25
2018-08-11T06:12:59.892Z,44.48
2018-08-11T06:13:59.900Z,46.67
2018-08-11T06:14:59.891Z,48.97
2018-08-11T06:15:59.880Z,48.68
2018-08-11T06:16:59.917Z,48.78
2018-08-11T06:17:59.869Z,46.87
2018-08-11T06:18:59.891Z,48.02
2018-08-11T06:19:59.895Z,47.73
2018-08-11T06:20:59.893Z,50.89
2018-08-11T06:22:00.619Z,49.84
2018-08-11T06:22:59.858Z,52.03
2018-08-11T06:23:59.860Z,52.80
2018-08-11T06:24:59.839Z,52.89
2018-08-11T06:25:59.851Z,50.89
2018-08-11T06:26:59.853Z,53.37
2018-08-11T06:27:59.873Z,52.32
2018-08-11T06:28:59.821Z,54.83
2018-08-11T06:29:59.813Z,52.83
2018-08-11T06:30:59.809Z,54.55
2018-08-11T06:31:59.839Z,55.41
2018-08-11T06:32:59.807Z,56.75
2018-08-11T06:33:59.798Z,57.90
2018-08-11T06:35:20.807Z,57.80
2018-08-11T06:36:06.616Z,58.95
2018-08-11T06:36:59.838Z,60.19
2018-08-11T06:37:59.791Z,58.86
2018-08-11T06:38:59.812Z,57.61
2018-08-11T06:40:00.610Z,58.95
2018-08-11T06:40:59.965Z,58.47
2018-08-11T06:42:14.596Z,59.52
2018-08-11T06:42:59.776Z,61.34
2018-08-11T06:43:59.766Z,59.33
2018-08-11T06:44:59.747Z,62.40
2018-08-11T06:45:59.770Z,58.95
2018-08-11T06:46:59.800Z,62.59
2018-08-11T06:47:59.751Z,66.22
2018-08-11T06:48:59.753Z,62.23
2018-08-11T06:49:59.734Z,67.41
2018-08-11T06:50:59.721Z,68.55
2018-08-11T06:51:59.751Z,67.21
2018-08-11T06:52:59.712Z,72.67
2018-08-11T06:55:25.959Z,71.56
2018-08-11T06:56:22.245Z,70.70
2018-08-11T06:58:17.054Z,74.82
2018-08-11T06:59:16.974Z,73.80
2018-08-11T07:04:41.014Z,77.15
2018-08-11T07:05:16.204Z,78.59
2018-08-11T07:10:17.747Z,80.51
2018-08-11T07:11:15.899Z,80.79
2018-08-11T07:13:10.319Z,81.79
2018-08-11T07:14:09.342Z,82.46
2018-08-11T07:16:44.240Z,84.33
2018-08-11T07:17:04.029Z,84.71
2018-08-11T07:19:01.404Z,86.58
2018-08-11T07:19:56.791Z,85.71
2018-08-11T07:21:51.335Z,86.33
2018-08-11T07:22:50.289Z,88.45
2018-08-11T07:24:44.034Z,88.35
2018-08-11T07:25:43.999Z,90.17
2018-08-11T07:27:37.740Z,89.12
2018-08-11T07:28:37.679Z,88.83
2018-08-11T07:30:32.429Z,87.82
2018-08-11T07:31:31.256Z,88.40
2018-08-11T07:32:31.520Z,89.17
2018-08-11T07:33:31.245Z,88.35
2018-08-11T07:34:31.243Z,88.30
2018-08-11T07:35:31.239Z,88.39
2018-08-11T07:36:31.346Z,88.73
2018-08-11T07:37:31.234Z,88.73
2018-08-11T07:38:31.233Z,88.29
2018-08-11T07:39:31.239Z,87.81
2018-08-11T07:40:31.229Z,87.81
2018-08-11T07:41:31.234Z,87.23
2018-08-11T07:42:34.129Z,88.19
2018-08-11T07:43:31.235Z,87.71
2018-08-11T07:44:31.233Z,87.71
2018-08-11T07:45:31.233Z,87.04
2018-08-11T07:46:31.238Z,87.81
2018-08-11T07:47:31.291Z,88.67
2018-08-11T07:48:31.268Z,86.08
2018-08-11T07:49:31.235Z,86.18
2018-08-11T07:50:31.232Z,85.93
2018-08-11T07:51:31.249Z,86.89
2018-08-11T07:52:32.146Z,84.77
2018-08-11T07:53:31.238Z,85.74
2018-08-11T07:54:31.304Z,85.40
2018-08-11T07:55:31.238Z,85.69
2018-08-11T07:56:31.241Z,86.46
2018-08-11T07:57:31.292Z,86.79
2018-08-11T07:58:31.246Z,85.64
2018-08-11T07:59:31.262Z,86.51
2018-08-11T08:00:31.244Z,86.51
2018-08-11T08:01:31.250Z,84.58
2018-08-11T08:02:31.236Z,84.97
2018-08-11T08:03:31.241Z,84.58
2018-08-11T08:04:31.249Z,85.16
2018-08-11T08:05:31.236Z,84.92
2018-08-11T08:06:31.241Z,83.62
2018-08-11T08:07:31.241Z,84.39
2018-08-11T08:08:31.239Z,84.29
2018-08-11T08:09:31.248Z,82.85
2018-08-11T08:10:31.245Z,82.56
2018-08-11T08:11:31.247Z,83.33
2018-08-11T08:12:31.245Z,82.27
2018-08-11T08:13:31.287Z,84.29
2018-08-11T08:14:31.249Z,82.89
2018-08-11T08:15:31.250Z,81.45
2018-08-11T08:16:31.246Z,80.91
2018-08-11T08:17:31.246Z,80.62
2018-08-11T08:18:31.252Z,81.29
2018-08-11T08:19:31.258Z,81.58
2018-08-11T08:20:31.252Z,80.04
2018-08-11T08:21:31.254Z,79.56
2018-08-11T08:22:31.257Z,78.94
2018-08-11T08:23:31.263Z,78.75
2018-08-11T08:24:31.258Z,78.46
2018-08-11T08:25:31.263Z,79.00
2018-08-11T08:26:31.508Z,79.48
2018-08-11T08:27:31.261Z,80.44
2018-08-11T08:28:31.260Z,80.96
2018-08-11T08:29:31.262Z,80.29
2018-08-11T08:30:31.264Z,81.83
2018-08-11T08:31:31.263Z,80.48
2018-08-11T08:32:31.267Z,79.71
2018-08-11T08:33:31.270Z,80.38
2018-08-11T08:34:31.272Z,79.94
2018-08-11T08:35:31.275Z,78.08
2018-08-11T08:36:31.266Z,77.01
2018-08-11T08:37:31.281Z,78.88
2018-08-11T08:38:31.271Z,77.15
2018-08-11T08:39:31.277Z,76.86
2018-08-11T08:40:31.276Z,77.34
2018-08-11T08:41:31.273Z,77.06
2018-08-11T08:42:31.272Z,75.99
2018-08-11T08:43:31.280Z,75.90
2018-08-11T08:44:31.281Z,75.28
2018-08-11T08:45:31.330Z,77.40
2018-08-11T08:46:31.283Z,77.88
2018-08-11T08:47:31.349Z,77.44
2018-08-11T08:48:31.277Z,75.80
2018-08-11T08:49:31.290Z,74.84
2018-08-11T08:50:31.288Z,73.01
2018-08-11T08:51:31.303Z,73.39
2018-08-11T08:52:31.284Z,73.88
2018-08-11T08:53:31.283Z,73.10
2018-08-11T08:54:31.283Z,74.55
2018-08-11T08:55:31.301Z,76.67
2018-08-11T08:56:31.290Z,75.51
2018-08-11T08:57:31.295Z,74.84
2018-08-11T08:58:31.294Z,74.07
2018-08-11T08:59:31.304Z,72.53
2018-08-11T09:00:31.287Z,74.84
2018-08-11T09:01:31.317Z,73.58
2018-08-11T09:02:31.306Z,72.81
2018-08-11T09:03:31.296Z,72.43
2018-08-11T09:04:31.322Z,71.85
2018-08-11T09:05:31.326Z,71.02
2018-08-11T09:06:31.316Z,70.44
2018-08-11T09:07:31.293Z,68.74
2018-08-11T09:08:31.297Z,67.58
2018-08-11T09:09:31.300Z,67.58
2018-08-11T09:10:31.327Z,67.68
2018-08-11T09:11:31.302Z,68.68
2018-08-11T09:12:31.316Z,67.52
2018-08-11T09:13:31.320Z,65.11
2018-08-11T09:14:31.309Z,67.23
2018-08-11T09:15:31.312Z,66.49
2018-08-11T09:16:31.316Z,68.62
2018-08-11T09:17:31.343Z,66.20
2018-08-11T09:18:31.311Z,66.88
2018-08-11T09:19:31.370Z,63.53
2018-08-11T09:20:31.319Z,66.82
2018-08-11T09:21:31.319Z,64.18
2018-08-11T09:22:31.322Z,66.01
2018-08-11T09:23:31.327Z,63.21
2018-08-11T09:24:31.329Z,67.94
2018-08-11T09:25:31.332Z,66.36
2018-08-11T09:26:31.461Z,65.82
2018-08-11T09:27:31.335Z,63.60
2018-08-11T09:28:31.346Z,63.50
2018-08-11T09:29:31.341Z,63.02
2018-08-11T09:30:31.343Z,64.18
2018-08-11T09:31:31.346Z,63.02
2018-08-11T09:32:31.351Z,61.67
2018-08-11T09:33:31.354Z,60.99
2018-08-11T09:34:31.355Z,61.09
2018-08-11T09:35:31.357Z,63.12
2018-08-11T09:36:31.363Z,62.63
2018-08-11T09:37:31.360Z,63.70
2018-08-11T09:38:31.408Z,63.70
2018-08-11T09:39:31.369Z,64.89
2018-08-11T09:40:31.393Z,63.73
2018-08-11T09:41:31.368Z,63.56
2018-08-11T09:42:31.381Z,63.47
2018-08-11T09:43:31.390Z,60.89
2018-08-11T09:44:31.382Z,59.34
2018-08-11T09:45:31.383Z,58.37
2018-08-11T09:46:31.388Z,58.45
2018-08-11T09:47:31.390Z,60.57
2018-08-11T09:48:31.388Z,59.96
2018-08-11T09:49:31.394Z,61.41
2018-08-11T09:50:31.404Z,61.86
2018-08-11T09:51:31.429Z,63.50
2018-08-11T09:52:31.416Z,62.28
2018-08-11T09:53:31.435Z,60.06
2018-08-11T09:54:31.424Z,60.13
2018-08-11T09:55:31.424Z,61.96
2018-08-11T09:56:31.415Z,62.05
2018-08-11T09:57:31.417Z,61.86
2018-08-11T09:58:31.417Z,61.38
2018-08-11T09:59:31.422Z,62.05
2018-08-11T10:00:31.418Z,59.86
2018-08-11T10:01:31.426Z,61.41
2018-08-11T10:02:31.427Z,60.06
2018-08-11T10:03:31.428Z,58.22
2018-08-11T10:04:31.433Z,58.22
2018-08-11T10:05:31.433Z,60.44
2018-08-11T10:06:31.438Z,58.03
2018-08-11T10:07:31.443Z,60.18
2018-08-11T10:08:31.442Z,60.96
2018-08-11T10:09:31.458Z,59.25
2018-08-11T10:10:31.488Z,58.40
2018-08-11T10:11:31.451Z,56.30
2018-08-11T10:12:31.451Z,57.37
2018-08-11T10:13:31.460Z,55.56
2018-08-11T10:14:31.464Z,53.04
2018-08-11T10:15:31.473Z,53.91
2018-08-11T10:16:31.471Z,52.58
2018-08-11T10:17:31.477Z,54.49
2018-08-11T10:18:31.505Z,52.87
2018-08-11T10:19:32.252Z,52.58
2018-08-11T10:20:31.490Z,54.23
2018-08-11T10:21:31.503Z,52.87
2018-08-11T10:22:31.499Z,53.72
2018-08-11T10:23:31.509Z,53.63
2018-08-11T10:24:31.504Z,54.59
2018-08-11T10:25:31.552Z,52.27
2018-08-11T10:26:31.511Z,51.56
2018-08-11T10:27:31.519Z,52.82
2018-08-11T10:28:31.515Z,55.36
2018-08-11T10:29:31.525Z,54.33
2018-08-11T10:30:31.527Z,53.07
2018-08-11T10:31:31.534Z,52.51
2018-08-11T10:32:31.532Z,52.73
2018-08-11T10:33:31.545Z,52.83
2018-08-11T10:34:31.552Z,50.12
2018-08-11T10:35:31.554Z,50.41
2018-08-11T10:36:31.558Z,50.70
2018-08-11T10:37:31.565Z,50.96
2018-08-11T10:38:31.593Z,49.58
2018-08-11T10:39:31.569Z,50.07
2018-08-11T10:40:31.574Z,50.55
2018-08-11T10:41:31.581Z,50.62
2018-08-11T10:42:31.584Z,49.56
2018-08-11T10:43:31.593Z,51.01
2018-08-11T10:44:31.595Z,49.44
2018-08-11T10:45:31.597Z,51.56
2018-08-11T10:46:31.624Z,51.06
2018-08-11T10:47:31.604Z,52.02
2018-08-11T10:48:31.612Z,51.73
2018-08-11T10:49:31.613Z,51.90
2018-08-11T10:50:31.631Z,52.39
2018-08-11T10:51:31.620Z,50.35
2018-08-11T10:52:31.617Z,50.84
2018-08-11T10:53:31.626Z,50.48
2018-08-11T10:54:31.625Z,49.02
2018-08-11T10:55:31.633Z,47.48
2018-08-11T10:56:31.635Z,47.09
2018-08-11T10:57:31.660Z,47.65
2018-08-11T10:58:31.663Z,47.94
2018-08-11T10:59:31.646Z,48.13
2018-08-11T11:00:31.643Z,49.07
2018-08-11T11:01:31.647Z,48.79
2018-08-11T11:02:31.677Z,50.59
2018-08-11T11:03:31.652Z,51.37
2018-08-11T11:04:31.693Z,51.75
2018-08-11T11:05:31.662Z,51.53
2018-08-11T11:06:31.659Z,51.63
2018-08-11T11:07:31.661Z,50.57
2018-08-11T11:08:31.766Z,51.44
2018-08-11T11:09:31.666Z,50.47
2018-08-11T11:10:31.668Z,52.01
2018-08-11T11:11:31.674Z,52.50
2018-08-11T11:12:31.670Z,51.63
2018-08-11T11:13:31.667Z,51.44
2018-08-11T11:14:31.672Z,51.82
2018-08-11T11:15:31.674Z,51.92
2018-08-11T11:16:31.674Z,51.05
2018-08-11T11:17:32.302Z,50.86
2018-08-11T11:18:31.679Z,51.17
2018-08-11T11:19:31.687Z,51.63
2018-08-11T11:20:31.673Z,50.86
2018-08-11T11:21:31.692Z,50.96
2018-08-11T11:22:31.713Z,52.59
2018-08-11T11:23:31.686Z,51.44
2018-08-11T11:24:31.676Z,51.73
2018-08-11T11:25:31.676Z,51.25
2018-08-11T11:26:31.698Z,52.31
2018-08-11T11:27:31.698Z,52.31
2018-08-11T11:28:31.677Z,51.92
2018-08-11T11:29:31.682Z,51.53
2018-08-11T11:30:31.689Z,52.59
2018-08-11T11:31:31.719Z,53.08
2018-08-11T11:32:31.692Z,53.27
2018-08-11T11:33:31.691Z,52.31
2018-08-11T11:34:31.695Z,52.31
2018-08-11T11:35:31.688Z,51.92
2018-08-11T11:36:31.682Z,53.17
2018-08-11T11:37:31.687Z,53.44
2018-08-11T11:38:31.691Z,53.15
2018-08-11T11:39:31.687Z,53.56
2018-08-11T11:40:31.693Z,53.53
2018-08-11T11:41:31.679Z,52.95
2018-08-11T11:42:31.706Z,53.15
2018-08-11T11:43:31.686Z,53.95
2018-08-11T11:44:31.689Z,53.95
2018-08-11T11:45:31.696Z,53.01
2018-08-11T11:46:31.681Z,52.81
2018-08-11T11:47:31.718Z,53.69
2018-08-11T11:48:31.694Z,52.53
2018-08-11T11:49:31.691Z,52.04
2018-08-11T11:50:31.701Z,52.53
2018-08-11T11:51:31.703Z,52.43
2018-08-11T11:52:31.688Z,51.97
2018-08-11T11:53:31.687Z,53.03
2018-08-11T11:54:31.731Z,52.26
2018-08-11T11:55:31.691Z,51.42
2018-08-11T11:56:31.730Z,50.93
2018-08-11T11:57:31.709Z,51.13
2018-08-11T11:58:31.697Z,50.57
2018-08-11T11:59:31.701Z,49.41
2018-08-11T12:00:31.702Z,50.57
2018-08-11T12:01:31.706Z,49.82
2018-08-11T12:02:31.711Z,47.99
2018-08-11T12:03:31.721Z,46.70
2018-08-11T12:04:31.714Z,48.74
2018-08-11T12:05:32.319Z,49.51
2018-08-11T12:06:31.731Z,47.69
2018-08-11T12:07:31.722Z,48.27
2018-08-11T12:08:31.731Z,48.18
2018-08-11T12:09:31.741Z,46.92
2018-08-11T12:10:31.732Z,48.18
2018-08-11T12:11:31.737Z,47.79
2018-08-11T12:12:31.763Z,48.37
2018-08-11T12:13:31.739Z,48.27
2018-08-11T12:14:31.764Z,46.63
2018-08-11T12:15:31.759Z,45.95
2018-08-11T12:16:31.767Z,45.95
2018-08-11T12:17:31.766Z,44.98
2018-08-11T12:18:31.759Z,44.02
2018-08-11T12:19:31.802Z,45.28
2018-08-11T12:20:31.765Z,43.90
2018-08-11T12:21:31.769Z,45.25
2018-08-11T12:22:31.775Z,45.35
2018-08-11T12:23:31.775Z,45.93
2018-08-11T12:24:31.785Z,45.06
2018-08-11T12:25:31.798Z,44.67
2018-08-11T12:26:31.782Z,46.22
2018-08-11T12:27:31.813Z,47.00
2018-08-11T12:28:31.790Z,46.12
2018-08-11T12:29:31.798Z,45.93
2018-08-11T12:30:31.800Z,46.32
2018-08-11T12:31:31.803Z,47.38
2018-08-11T12:32:31.801Z,47.00
2018-08-11T12:33:31.803Z,47.09
2018-08-11T12:34:31.809Z,46.42
2018-08-11T12:35:31.805Z,47.38
2018-08-11T12:36:31.823Z,47.36
2018-08-11T12:37:31.815Z,47.07
2018-08-11T12:38:31.829Z,45.81
2018-08-11T12:39:31.815Z,46.58
2018-08-11T12:40:31.816Z,47.91
2018-08-11T12:41:31.832Z,47.33
2018-08-11T12:42:31.824Z,48.23
2018-08-11T12:43:31.820Z,48.03
2018-08-11T12:44:31.828Z,47.38
2018-08-11T12:45:31.830Z,47.00
2018-08-11T12:46:31.832Z,47.38
2018-08-11T12:47:31.838Z,47.09
2018-08-11T12:48:31.844Z,47.96
2018-08-11T12:49:31.855Z,47.67
2018-08-11T12:50:31.837Z,48.25
2018-08-11T12:51:31.842Z,46.34
2018-08-11T12:52:31.844Z,46.44
2018-08-11T12:53:31.958Z,45.95
2018-08-11T12:54:31.901Z,47.14
2018-08-11T12:55:31.855Z,45.22
2018-08-11T12:56:31.866Z,45.32
2018-08-11T12:57:31.856Z,45.13
2018-08-11T12:58:31.922Z,44.06
2018-08-11T12:59:31.872Z,44.16
2018-08-11T13:00:31.880Z,43.77
2018-08-11T13:01:31.879Z,43.87
2018-08-11T13:02:31.885Z,43.38
2018-08-11T13:03:31.883Z,43.87
2018-08-11T13:04:31.898Z,43.09
2018-08-11T13:05:31.921Z,43.77
2018-08-11T13:06:31.897Z,44.16
2018-08-11T13:07:31.902Z,43.48
2018-08-11T13:08:31.901Z,43.00